Weather observations for the past three days for
Imperial Beach Naval Outlying Field - Ream Field
| Date | Time (pdt) | Wind (kph) | Vis. (km) | Weather | Sky Cond. | Temperature (ºC) | Relative Humidity | Wind Chill (°C) | Heat Index (°C) | Pressure | Precipitation (cm) | ||||||
|---|---|---|---|---|---|---|---|---|---|---|---|---|---|---|---|---|---|
| Air | Dwpt | 6 hour | altimeter (cm) | sea level (mb) | 1 hr | 3 hr | 6 hr | ||||||||||
| Max. | Min. | ||||||||||||||||
| 03 | 17:53 | W 19 | 16.09 | Mostly Cloudy | BKN046 | 18.9 | 10 | 56% | 76.1 | 1014.4 | |||||||
| 03 | 14:53 | W 17 | 16.09 | A Few Clouds | FEW049 | 19.4 | 9.4 | 53% | 76.07 | 1014.1 | |||||||
| 03 | 12:53 | W 19 | 16.09 | Overcast | BKN037 OVC046 | 18.9 | 11.7 | 63% | 76.12 | 1014.8 | |||||||
| 03 | 10:53 | W 19 | 16.09 | Overcast | OVC040 | 18.9 | 11.7 | 19.4 | 16.7 | 63% | 76.12 | 1014.8 | |||||
| 03 | 09:53 | W 17 | 16.09 | Overcast | OVC042 | 18.9 | 11.7 | 63% | 76.12 | 1014.7 | |||||||
| 03 | 08:53 | W 11 | 16.09 | Overcast | FEW029 OVC042 | 17.8 | 11.7 | 68% | 76.12 | 1014.6 | |||||||
| 03 | 06:53 | NW 7 | 16.09 | Overcast | BKN021 OVC033 | 16.7 | 12.8 | 78% | 76.07 | 1014.2 | |||||||
| 03 | 05:53 | W 9 | 0.00 | Overcast | SCT020 OVC028 | 16.7 | 12.8 | 78% | 76.02 | 1013.3 | |||||||
| 03 | 04:53 | W 9 | 0.00 | Overcast | OVC025 | 16.7 | 12.8 | 16.7 | 16.1 | 78% | 76 | 1013.1 | |||||
| 03 | 03:53 | W 9 | 0.00 | Overcast | OVC021 | 16.7 | 13.3 | 80% | 76 | 1013.2 | |||||||
| 03 | 02:53 | Calm | 0.00 | Overcast | OVC021 | 16.7 | 13.3 | 80% | 76 | 1013.1 | |||||||
| 03 | 01:53 | Calm | 0.00 | Overcast | OVC019 | 16.7 | 13.3 | 80% | 76.02 | 1013.3 | |||||||
| 03 | 00:53 | Calm | 0.00 | Overcast | OVC019 | 16.1 | 13.3 | 84% | 76.07 | 1014.1 | |||||||
| 02 | 23:53 | Calm | 0.00 | Overcast | OVC020 | 16.1 | 13.3 | 84% | 76.1 | 1014.4 | |||||||
| 02 | 21:53 | W 9 | 0.00 | Mostly Cloudy | FEW015 BKN020 | 16.1 | 13.3 | 84% | 76.05 | 1013.6 | |||||||
| 02 | 20:53 | W 11 | 0.00 | Fair | CLR | 16.7 | 12.8 | 78% | 75.95 | 1012.6 | |||||||
| 02 | 19:53 | NW 11 | 16.09 | Fair | CLR | 16.7 | 13.3 | 80% | 75.87 | 1011.6 | |||||||
| 02 | 18:53 | W 15 | 16.09 | Fair | CLR | 17.2 | 13.3 | 78% | 75.9 | 1011.8 | |||||||
| 02 | 17:53 | W 17 | 16.09 | Fair | CLR | 17.8 | 12.8 | 73% | 75.87 | 1011.6 | |||||||
| 02 | 16:53 | W 22 | 16.09 | Fair | CLR | 18.3 | 13.3 | 20.6 | 17.2 | 73% | 75.9 | 1011.7 | |||||
| 02 | 15:53 | W 22 | 16.09 | Fair | CLR | 20 | 13.9 | 68% | 75.9 | 1011.9 | |||||||
| 02 | 13:53 | W 28 | 16.09 | Fair | CLR | 20 | 14.4 | 70% | 76.02 | 1013.5 | |||||||
| 02 | 12:53 | W 22 | 16.09 | Partly Cloudy | SCT021 | 20 | 14.4 | 70% | 76 | 1013.2 | |||||||
| 02 | 11:53 | W 20 | 16.09 | Overcast | OVC019 | 18.3 | 14.4 | 78% | 76.07 | 1014.1 | |||||||
| 02 | 10:53 | W 19 | 16.09 | Overcast | OVC015 | 17.2 | 15 | 17.2 | 16.7 | 87% | 76.12 | 1014.9 | |||||
| 02 | 09:53 | W 15 | 16.09 | Overcast | FEW006 OVC014 | 17.2 | 15 | 87% | 76.15 | 1015.2 | |||||||
| 02 | 08:53 | W 9 | 16.09 | Overcast | OVC015 | 17.2 | 13.9 | 81% | 76.15 | 1015.2 | |||||||
| 02 | 07:53 | W 9 | 16.09 | Overcast | OVC014 | 17.2 | 14.4 | 84% | 76.12 | 1014.9 | |||||||
| 02 | 06:53 | W 7 | 16.09 | Overcast | OVC013 | 16.7 | 13.9 | 84% | 76.1 | 1014.4 | |||||||
| 02 | 05:53 | W 6 | 0.00 | Overcast | OVC013 | 16.7 | 13.9 | 84% | 76.07 | 1014.1 | |||||||
| 02 | 03:53 | W 7 | 0.00 | Overcast | OVC014 | 16.7 | 13.9 | 84% | 76.05 | 1013.6 | |||||||
| 02 | 02:53 | SW 7 | 0.00 | Overcast | OVC015 | 16.7 | 13.9 | 84% | 76.05 | 1013.6 | |||||||
| 02 | 01:53 | W 9 | 0.00 | Overcast | OVC016 | 17.2 | 13.9 | 81% | 76.05 | 1013.7 | |||||||
| 02 | 00:53 | W 9 | 0.00 | Overcast | OVC017 | 17.2 | 13.9 | 81% | 76.1 | 1014.3 | |||||||
| 01 | 23:53 | W 7 | 0.00 | Overcast | OVC017 | 17.2 | 13.9 | 81% | 76.1 | 1014.3 | |||||||
| 01 | 22:53 | W 7 | 0.00 | Overcast | OVC017 | 16.7 | 13.3 | 18.3 | 16.7 | 80% | 76.1 | 1014.3 | |||||
| 01 | 21:53 | Calm | 0.00 | Mostly Cloudy | BKN019 | 17.2 | 13.3 | 78% | 76.1 | 1014.4 | |||||||
| 01 | 20:53 | N 9 | 0.00 | Overcast | OVC017 | 17.2 | 13.3 | 78% | 76.07 | 1014.0 | |||||||
| 01 | 19:53 | NW 6 | 16.09 | Overcast | OVC016 | 17.2 | 13.3 | 78% | 76.02 | 1013.5 | |||||||
| 01 | 18:53 | W 11 | 16.09 | Overcast | OVC015 | 17.2 | 13.3 | 78% | 76 | 1013.2 | |||||||
| 01 | 17:53 | SW 13 | 16.09 | Partly Cloudy | SCT013 SCT025 | 17.8 | 13.3 | 75% | 75.97 | 1012.8 | |||||||
| 01 | 16:53 | SW 15 G 31 | 16.09 | A Few Clouds | FEW020 FEW040 | 18.3 | 13.3 | 20.6 | 18.3 | 73% | 75.97 | 1012.8 | |||||
| 01 | 15:53 | W 15 | 16.09 | A Few Clouds | FEW020 FEW040 | 19.4 | 13.3 | 68% | 76 | 1013.0 | |||||||
| 01 | 14:53 | SW 19 | 16.09 | A Few Clouds | FEW020 FEW040 | 19.4 | 13.3 | 68% | 76.05 | 1013.6 | |||||||
| 01 | 13:53 | SW 20 | 16.09 | A Few Clouds | FEW020 FEW040 | 20 | 12.8 | 63% | 76.07 | 1013.9 | |||||||
| 01 | 11:53 | W 17 | 16.09 | A Few Clouds | FEW025 | 19.4 | 11.7 | 61% | 76.12 | 1014.7 | |||||||
| 01 | 10:53 | W 19 | 16.09 | A Few Clouds | FEW025 | 18.9 | 11.7 | 19.4 | 14.4 | 63% | 76.15 | 1015.2 | |||||
| 01 | 09:53 | W 15 | 16.09 | Mostly Cloudy | BKN025 | 18.3 | 11.1 | 63% | 76.17 | 1015.3 | |||||||
| 01 | 08:53 | NW 6 | 16.09 | Mostly Cloudy | BKN023 | 17.8 | 11.1 | 65% | 76.15 | 1015.3 | |||||||
| 01 | 07:53 | Calm | 16.09 | Mostly Cloudy | BKN023 | 16.7 | 11.7 | 73% | 76.15 | 1015.1 | |||||||
| 01 | 06:53 | E 6 | 16.09 | Mostly Cloudy | BKN023 | 15.6 | 11.7 | 78% | 76.12 | 1014.7 | |||||||
| 01 | 05:53 | E 7 | 16.09 | Overcast | OVC023 | 15 | 12.2 | 83% | 76.07 | 1014.2 | |||||||
| 01 | 03:53 | NE 6 | 0.00 | Overcast | OVC022 | 13.3 | 11.7 | 90% | 76.05 | 1013.9 | |||||||
| 01 | 01:53 | Calm | 0.00 | Mostly Cloudy | BKN018 | 10.6 | 10 | 96% | 76.05 | 1013.8 | |||||||
| 01 | 00:53 | Calm | 0.00 | Fair | CLR | 12.8 | 11.1 | 90% | 76.1 | 1014.5 | |||||||
| 30 | 23:53 | E 7 | 0.00 | Fair | CLR | 11.7 | 10.6 | 93% | 76.07 | 1014.2 | |||||||
| 30 | 22:53 | Calm | 16.09 | A Few Clouds | FEW020 | 14.4 | 12.2 | 18.9 | 12.2 | 87% | 76.1 | 1014.4 | |||||
| 30 | 21:53 | SW 6 | 16.09 | A Few Clouds | FEW020 | 12.8 | 11.1 | 90% | 76.05 | 1013.9 | |||||||
| 30 | 20:53 | Calm | 16.09 | A Few Clouds | FEW020 | 13.3 | 11.7 | 90% | 76.02 | 1013.4 | |||||||
| 30 | 19:53 | Calm | 16.09 | Partly Cloudy | FEW022 SCT250 | 15.6 | 12.2 | 80% | 76 | 1013.0 | |||||||
| 30 | 18:53 | W 13 | 16.09 | Partly Cloudy | FEW024 SCT250 | 16.7 | 12.2 | 75% | 75.97 | 1012.8 | |||||||
| Date | Time (pdt) | Wind (kph) | Vis. (km) | Weather | Sky Cond. | Air | Dwpt | Max. | Min. | Relative Humidity | Wind Chill (°C) | Heat Index (°C) | altimeter (cm) | sea level (mb) | 1 hr | 3 hr | 6 hr |
| 6 hour | |||||||||||||||||
| Temperature (ºC) | Pressure | Precipitation (cm) | |||||||||||||||